createdAt,value
2017-11-13T00:00:30.617Z,989.55
2017-11-13T00:01:39.228Z,989.73
2017-11-13T00:02:47.811Z,989.80
2017-11-13T00:03:56.416Z,989.61
2017-11-13T00:05:05.005Z,989.70
2017-11-13T00:06:13.599Z,989.77
2017-11-13T00:07:22.262Z,989.75
2017-11-13T00:08:30.797Z,989.79
2017-11-13T00:09:39.411Z,989.84
2017-11-13T00:10:48.071Z,989.79
2017-11-13T00:11:56.694Z,989.70
2017-11-13T00:13:05.286Z,989.87
2017-11-13T00:14:13.800Z,989.94
2017-11-13T00:15:22.404Z,989.88
2017-11-13T00:16:31.086Z,989.74
2017-11-13T00:17:39.633Z,990.02
2017-11-13T00:18:48.229Z,989.85
2017-11-13T00:19:56.838Z,989.84
2017-11-13T00:21:05.447Z,989.75
2017-11-13T00:22:14.075Z,989.94
2017-11-13T00:23:22.570Z,989.79
2017-11-13T00:24:31.180Z,989.82
2017-11-13T00:25:39.781Z,989.98
2017-11-13T00:26:48.389Z,989.92
2017-11-13T00:27:57.018Z,989.83
2017-11-13T00:29:05.557Z,990.00
2017-11-13T00:30:14.218Z,989.98
2017-11-13T00:31:22.824Z,989.99
2017-11-13T00:32:31.376Z,989.97
2017-11-13T00:33:40.040Z,989.95
2017-11-13T00:34:48.549Z,989.92
2017-11-13T00:35:57.160Z,989.86
2017-11-13T00:37:05.738Z,990.00
2017-11-13T00:38:14.358Z,990.11
2017-11-13T00:39:22.982Z,989.93
2017-11-13T00:40:31.533Z,990.01
2017-11-13T00:41:40.127Z,990.16
2017-11-13T00:42:48.826Z,990.18
2017-11-13T00:43:57.430Z,990.17
2017-11-13T00:45:05.926Z,990.10
2017-11-13T00:46:14.540Z,990.07
2017-11-13T00:47:23.153Z,989.98
2017-11-13T00:48:31.725Z,989.98
2017-11-13T00:49:40.363Z,990.19
2017-11-13T00:50:48.899Z,990.24
2017-11-13T00:51:57.581Z,990.16
2017-11-13T00:53:06.206Z,990.24
2017-11-13T00:54:14.697Z,990.48
2017-11-13T00:55:23.302Z,990.41
2017-11-13T00:56:31.877Z,990.24
2017-11-13T00:57:40.469Z,990.26
2017-11-13T00:58:49.147Z,990.29
2017-11-13T00:59:57.649Z,990.43
2017-11-13T01:01:06.423Z,990.34
2017-11-13T01:02:14.851Z,990.26
2017-11-13T01:03:23.483Z,990.39
2017-11-13T01:04:32.036Z,990.01
2017-11-13T01:05:40.682Z,990.28
2017-11-13T01:06:49.200Z,990.36
2017-11-13T01:07:57.796Z,990.19
2017-11-13T01:09:06.423Z,990.35
2017-11-13T01:10:15.014Z,990.13
2017-11-13T01:11:23.627Z,990.10
2017-11-13T01:12:32.137Z,990.37
2017-11-13T01:13:40.751Z,990.46
2017-11-13T01:14:49.316Z,990.47
2017-11-13T01:15:57.953Z,990.46
2017-11-13T01:17:06.640Z,990.39
2017-11-13T01:18:15.245Z,990.37
2017-11-13T01:19:23.709Z,990.39
2017-11-13T01:20:32.265Z,990.48
2017-11-13T01:21:40.901Z,990.41
2017-11-13T01:22:49.506Z,990.51
2017-11-13T01:23:58.061Z,990.59
2017-11-13T01:25:06.626Z,990.63
2017-11-13T01:26:15.217Z,990.70
2017-11-13T01:27:23.836Z,990.43
2017-11-13T01:28:32.391Z,990.72
2017-11-13T01:29:41.077Z,990.70
2017-11-13T01:30:49.666Z,990.63
2017-11-13T01:31:58.175Z,990.67
2017-11-13T01:33:06.780Z,990.82
2017-11-13T01:34:15.404Z,990.27
2017-11-13T01:35:25.020Z,990.64
2017-11-13T01:36:32.681Z,990.85
2017-11-13T01:37:41.113Z,991.04
2017-11-13T01:38:49.730Z,990.80
2017-11-13T01:39:58.345Z,990.80
2017-11-13T01:41:07.013Z,990.70
2017-11-13T01:42:15.458Z,990.72
2017-11-13T01:43:24.133Z,990.86
2017-11-13T01:44:32.678Z,991.00
2017-11-13T01:45:41.275Z,990.69
2017-11-13T01:46:49.882Z,990.77
2017-11-13T01:47:58.385Z,990.66
2017-11-13T01:49:06.958Z,990.75
2017-11-13T01:50:15.568Z,990.79
2017-11-13T01:51:24.215Z,990.67
2017-11-13T01:52:32.723Z,990.73
2017-11-13T01:53:41.297Z,990.69
2017-11-13T01:54:49.937Z,990.86
2017-11-13T01:55:58.471Z,990.74
2017-11-13T01:57:07.155Z,990.83
2017-11-13T01:58:15.667Z,990.92
2017-11-13T01:59:24.288Z,990.73
2017-11-13T02:00:33.052Z,990.75
2017-11-13T02:01:41.421Z,990.75
2017-11-13T02:02:50.099Z,990.82
2017-11-13T02:03:58.620Z,990.93
2017-11-13T02:05:07.231Z,991.03
2017-11-13T02:06:15.796Z,990.87
2017-11-13T02:07:24.388Z,990.79
2017-11-13T02:08:33.041Z,990.99
2017-11-13T02:09:41.691Z,990.97
2017-11-13T02:10:50.213Z,991.04
2017-11-13T02:11:58.867Z,991.06
2017-11-13T02:13:07.473Z,991.08
2017-11-13T02:14:15.982Z,991.07
2017-11-13T02:15:24.724Z,990.99
2017-11-13T02:16:33.200Z,991.07
2017-11-13T02:17:41.808Z,991.07
2017-11-13T02:18:50.492Z,991.19
2017-11-13T02:19:59.043Z,991.31
2017-11-13T02:21:07.603Z,991.17
2017-11-13T02:22:16.206Z,991.33
2017-11-13T02:23:24.814Z,991.43
2017-11-13T02:24:33.564Z,991.28
2017-11-13T02:25:42.045Z,991.22
2017-11-13T02:26:50.627Z,991.58
2017-11-13T02:27:59.288Z,991.50
2017-11-13T02:29:07.836Z,991.45
2017-11-13T02:30:16.530Z,991.64
2017-11-13T02:31:25.045Z,991.45
2017-11-13T02:32:33.657Z,991.41
2017-11-13T02:33:42.237Z,991.51
2017-11-13T02:34:50.940Z,991.60
2017-11-13T02:35:59.459Z,991.63
2017-11-13T02:37:08.029Z,991.50
2017-11-13T02:38:16.629Z,991.50
2017-11-13T02:39:25.276Z,991.58
2017-11-13T02:40:33.849Z,991.52
2017-11-13T02:41:42.422Z,991.68
2017-11-13T02:42:51.010Z,991.65
2017-11-13T02:43:59.610Z,991.63
2017-11-13T02:45:08.217Z,991.69
2017-11-13T02:46:16.856Z,991.42
2017-11-13T02:47:25.436Z,991.82
2017-11-13T02:48:34.001Z,991.83
2017-11-13T02:49:42.651Z,991.57
2017-11-13T02:50:51.226Z,991.87
2017-11-13T02:51:59.835Z,991.79
2017-11-13T02:53:08.418Z,991.76
2017-11-13T02:54:18.011Z,991.71
2017-11-13T02:55:25.625Z,991.92
2017-11-13T02:56:34.323Z,991.84
2017-11-13T02:57:42.987Z,991.93
2017-11-13T02:58:51.522Z,991.99
2017-11-13T03:00:00.040Z,991.91
2017-11-13T03:01:08.863Z,991.84
2017-11-13T03:02:17.243Z,991.99
2017-11-13T03:03:25.854Z,992.18
2017-11-13T03:04:34.437Z,991.85
2017-11-13T03:05:43.070Z,992.01
2017-11-13T03:06:51.705Z,991.98
2017-11-13T03:08:00.289Z,991.98
2017-11-13T03:09:08.897Z,991.90
2017-11-13T03:10:17.509Z,992.08
2017-11-13T03:11:26.085Z,991.94
2017-11-13T03:12:34.723Z,992.05
2017-11-13T03:13:43.273Z,992.11
2017-11-13T03:14:51.942Z,991.94
2017-11-13T03:16:00.550Z,992.06
2017-11-13T03:17:09.119Z,992.16
2017-11-13T03:18:17.694Z,992.17
2017-11-13T03:19:26.303Z,992.17
2017-11-13T03:20:35.919Z,992.06
2017-11-13T03:21:44.547Z,992.23
2017-11-13T03:22:53.129Z,992.24
2017-11-13T03:24:00.812Z,992.17
2017-11-13T03:25:09.349Z,992.13
2017-11-13T03:26:18.030Z,992.07
2017-11-13T03:27:27.594Z,992.33
2017-11-13T03:28:35.248Z,992.18
2017-11-13T03:29:43.783Z,992.23
2017-11-13T03:30:53.391Z,992.28
2017-11-13T03:32:01.022Z,992.47
2017-11-13T03:33:09.685Z,992.49
2017-11-13T03:34:18.367Z,992.46
2017-11-13T03:35:26.829Z,992.40
2017-11-13T03:36:35.437Z,992.39
2017-11-13T03:37:44.079Z,992.42
2017-11-13T03:38:52.724Z,992.36
2017-11-13T03:40:01.336Z,992.55
2017-11-13T03:41:09.949Z,992.59
2017-11-13T03:42:18.577Z,992.51
2017-11-13T03:43:27.098Z,992.71
2017-11-13T03:44:35.713Z,992.75
2017-11-13T03:45:44.322Z,992.72
2017-11-13T03:46:52.991Z,992.73
2017-11-13T03:48:01.563Z,992.73
2017-11-13T03:49:10.177Z,992.67
2017-11-13T03:50:18.777Z,992.70
2017-11-13T03:51:27.424Z,992.71
2017-11-13T03:52:36.049Z,992.72
2017-11-13T03:53:44.596Z,992.60
2017-11-13T03:54:53.250Z,992.70
2017-11-13T03:56:01.805Z,992.80
2017-11-13T03:57:10.653Z,992.89
2017-11-13T03:58:19.021Z,992.91
2017-11-13T03:59:27.637Z,992.85
2017-11-13T04:00:36.292Z,992.68
2017-11-13T04:01:44.903Z,992.69
2017-11-13T04:02:53.603Z,992.66
2017-11-13T04:04:02.142Z,992.76
2017-11-13T04:05:10.750Z,992.88
2017-11-13T04:06:19.284Z,992.85
2017-11-13T04:07:27.916Z,992.90
2017-11-13T04:08:36.560Z,992.89
2017-11-13T04:09:45.167Z,992.97
2017-11-13T04:10:53.774Z,993.01
2017-11-13T04:12:02.337Z,992.97
2017-11-13T04:13:11.014Z,993.06
2017-11-13T04:14:19.564Z,992.95
2017-11-13T04:15:28.176Z,992.93
2017-11-13T04:16:36.785Z,992.99
2017-11-13T04:17:45.458Z,993.06
2017-11-13T04:18:54.548Z,992.96
2017-11-13T04:20:02.633Z,993.04
2017-11-13T04:21:11.374Z,993.14
2017-11-13T04:22:19.863Z,993.13
2017-11-13T04:23:28.501Z,993.16
2017-11-13T04:24:37.086Z,993.14
2017-11-13T04:25:45.708Z,993.17
2017-11-13T04:26:54.313Z,993.23
2017-11-13T04:28:02.952Z,993.36
2017-11-13T04:29:11.621Z,993.35
2017-11-13T04:30:20.129Z,993.38
2017-11-13T04:31:28.741Z,993.42
2017-11-13T04:32:37.346Z,993.32
2017-11-13T04:33:45.983Z,993.21
2017-11-13T04:34:54.566Z,993.29
2017-11-13T04:36:03.170Z,993.21
2017-11-13T04:37:11.778Z,993.21
2017-11-13T04:38:20.417Z,993.09
2017-11-13T04:39:28.965Z,993.27
2017-11-13T04:40:37.606Z,993.40
2017-11-13T04:41:46.164Z,993.22
2017-11-13T04:42:54.822Z,993.54
2017-11-13T04:44:03.391Z,993.33
2017-11-13T04:45:11.960Z,993.16
2017-11-13T04:46:20.648Z,993.28
2017-11-13T04:47:29.170Z,993.22
2017-11-13T04:48:38.021Z,993.31
2017-11-13T04:49:46.350Z,993.16
2017-11-13T04:50:54.981Z,993.22
2017-11-13T04:52:03.589Z,993.25
2017-11-13T04:53:12.167Z,993.19
2017-11-13T04:54:20.770Z,993.48
2017-11-13T04:55:29.344Z,993.35
2017-11-13T04:56:37.933Z,993.59
2017-11-13T04:57:46.642Z,993.29
2017-11-13T04:58:55.163Z,993.35
2017-11-13T05:00:03.721Z,993.45
2017-11-13T05:01:12.311Z,993.48
2017-11-13T05:02:20.909Z,993.30
2017-11-13T05:03:29.503Z,993.57
2017-11-13T05:04:38.124Z,993.50
2017-11-13T05:05:46.795Z,993.47
2017-11-13T05:06:55.301Z,993.46
2017-11-13T05:08:03.888Z,993.41
2017-11-13T05:09:12.510Z,993.61
2017-11-13T05:10:21.081Z,993.60
2017-11-13T05:11:29.681Z,993.49
2017-11-13T05:12:38.290Z,993.54
2017-11-13T05:13:46.887Z,993.48
2017-11-13T05:14:56.514Z,993.51
2017-11-13T05:16:04.093Z,993.72
2017-11-13T05:17:12.693Z,993.60
2017-11-13T05:18:21.297Z,993.71
2017-11-13T05:19:29.927Z,993.63
2017-11-13T05:20:38.512Z,993.76
2017-11-13T05:21:47.120Z,993.73
2017-11-13T05:22:55.722Z,993.48
2017-11-13T05:24:04.333Z,993.64
2017-11-13T05:25:12.955Z,993.69
2017-11-13T05:26:21.547Z,993.75
2017-11-13T05:27:30.157Z,993.66
2017-11-13T05:28:38.765Z,993.61
2017-11-13T05:29:47.393Z,993.61
2017-11-13T05:30:55.924Z,993.66
2017-11-13T05:32:04.539Z,993.84
2017-11-13T05:33:14.125Z,993.80
2017-11-13T05:34:21.841Z,993.78
2017-11-13T05:35:30.417Z,993.77
2017-11-13T05:36:38.941Z,993.64
2017-11-13T05:37:47.548Z,993.59
2017-11-13T05:38:56.148Z,993.77
2017-11-13T05:40:04.768Z,993.70
2017-11-13T05:41:13.363Z,993.69
2017-11-13T05:42:22.046Z,993.78
2017-11-13T05:43:30.579Z,993.83
2017-11-13T05:44:39.224Z,993.66
2017-11-13T05:45:47.796Z,993.93
2017-11-13T05:46:56.405Z,993.92
2017-11-13T05:48:04.964Z,993.95
2017-11-13T05:49:13.559Z,993.83
2017-11-13T05:50:22.248Z,994.00
2017-11-13T05:51:30.838Z,994.06
2017-11-13T05:52:39.359Z,993.79
2017-11-13T05:53:48.060Z,993.96
2017-11-13T05:54:56.573Z,994.13
2017-11-13T05:56:05.704Z,994.14
2017-11-13T05:57:13.779Z,994.04
2017-11-13T05:58:22.365Z,994.03
2017-11-13T05:59:30.965Z,994.04
2017-11-13T06:00:39.629Z,994.06
2017-11-13T06:01:48.166Z,994.15
2017-11-13T06:02:56.829Z,994.19
2017-11-13T06:04:05.381Z,994.17
2017-11-13T06:05:13.986Z,994.27
2017-11-13T06:06:23.604Z,994.16
2017-11-13T06:07:31.180Z,994.07
2017-11-13T06:08:39.791Z,994.01
2017-11-13T06:09:48.390Z,994.00
2017-11-13T06:10:57.016Z,994.19
2017-11-13T06:12:05.698Z,994.23
2017-11-13T06:13:14.205Z,994.10
2017-11-13T06:14:22.813Z,994.34
2017-11-13T06:15:31.497Z,994.38
2017-11-13T06:16:40.039Z,994.17
2017-11-13T06:17:48.640Z,994.25
2017-11-13T06:18:57.224Z,994.21
2017-11-13T06:20:05.940Z,994.45
2017-11-13T06:21:14.489Z,994.54
2017-11-13T06:22:23.049Z,994.21
2017-11-13T06:23:31.685Z,994.65
2017-11-13T06:24:40.805Z,994.46
2017-11-13T06:25:48.887Z,994.54
2017-11-13T06:26:57.526Z,994.45
2017-11-13T06:28:06.123Z,994.45
2017-11-13T06:29:14.713Z,994.59
2017-11-13T06:30:23.322Z,994.71
2017-11-13T06:31:31.974Z,994.63
2017-11-13T06:32:40.554Z,994.47
2017-11-13T06:33:49.229Z,994.56
2017-11-13T06:34:57.770Z,994.64
2017-11-13T06:36:06.409Z,994.67
2017-11-13T06:37:14.988Z,994.65
2017-11-13T06:38:23.573Z,994.73
2017-11-13T06:39:32.182Z,994.63
2017-11-13T06:40:40.789Z,994.74
2017-11-13T06:41:49.430Z,994.97
2017-11-13T06:42:58.546Z,995.10
2017-11-13T06:44:06.617Z,994.96
2017-11-13T06:45:15.327Z,994.89
2017-11-13T06:46:23.965Z,994.93
2017-11-13T06:47:32.442Z,994.85
2017-11-13T06:48:41.085Z,994.88
2017-11-13T06:49:49.665Z,994.99
2017-11-13T06:50:58.372Z,995.08
2017-11-13T06:52:06.906Z,995.00
2017-11-13T06:53:15.518Z,995.05
2017-11-13T06:54:24.123Z,994.61
2017-11-13T06:55:32.730Z,994.79
2017-11-13T06:56:41.371Z,994.78
2017-11-13T06:57:49.950Z,994.99
2017-11-13T06:58:58.558Z,995.14
2017-11-13T07:00:07.167Z,995.05
2017-11-13T07:01:15.777Z,995.27
2017-11-13T07:02:24.507Z,995.12
2017-11-13T07:03:33.095Z,995.37
2017-11-13T07:04:41.631Z,995.17
2017-11-13T07:05:50.311Z,995.17
2017-11-13T07:06:58.937Z,995.17
2017-11-13T07:08:07.530Z,995.13
2017-11-13T07:09:16.140Z,995.25
2017-11-13T07:10:24.756Z,995.15
2017-11-13T07:11:33.376Z,995.09
2017-11-13T07:12:41.951Z,995.09
2017-11-13T07:13:50.546Z,995.13
2017-11-13T07:14:59.184Z,995.26
2017-11-13T07:16:07.773Z,995.31
2017-11-13T07:17:16.424Z,995.46
2017-11-13T07:18:25.012Z,995.40
2017-11-13T07:19:33.721Z,995.47
2017-11-13T07:20:42.262Z,995.58
2017-11-13T07:21:50.940Z,995.60
2017-11-13T07:22:59.733Z,995.39
2017-11-13T07:24:08.157Z,995.36
2017-11-13T07:25:16.765Z,995.39
2017-11-13T07:26:25.378Z,995.63
2017-11-13T07:27:34.033Z,995.64
2017-11-13T07:28:42.697Z,995.83
2017-11-13T07:29:51.272Z,995.71
2017-11-13T07:30:59.915Z,995.89
2017-11-13T07:32:08.543Z,995.77
2017-11-13T07:33:17.225Z,995.93
2017-11-13T07:34:25.803Z,995.89
2017-11-13T07:35:34.433Z,995.80
2017-11-13T07:36:43.162Z,995.70
2017-11-13T07:37:51.772Z,995.50
2017-11-13T07:39:00.379Z,995.71
2017-11-13T07:40:08.972Z,995.88
2017-11-13T07:41:17.614Z,995.85
2017-11-13T07:42:26.242Z,995.81
2017-11-13T07:43:34.904Z,995.69
2017-11-13T07:44:43.531Z,995.85
2017-11-13T07:45:52.235Z,995.53
2017-11-13T07:47:00.846Z,995.59
2017-11-13T07:48:09.639Z,995.67
2017-11-13T07:49:18.130Z,995.76
2017-11-13T07:50:27.699Z,995.69
2017-11-13T07:51:35.333Z,995.82
2017-11-13T07:52:43.995Z,995.64
2017-11-13T07:53:52.637Z,995.82
2017-11-13T07:55:01.254Z,995.83
2017-11-13T07:56:09.920Z,995.81
2017-11-13T07:57:18.632Z,995.79
2017-11-13T07:58:27.208Z,995.74
2017-11-13T07:59:35.850Z,995.89
2017-11-13T08:00:44.560Z,996.06
2017-11-13T08:01:53.680Z,995.98
2017-11-13T08:03:01.786Z,996.15
2017-11-13T08:04:10.461Z,996.18
2017-11-13T08:05:19.084Z,996.20
2017-11-13T08:06:28.838Z,996.28
2017-11-13T08:07:36.393Z,996.21
2017-11-13T08:08:45.145Z,996.38
2017-11-13T08:09:53.739Z,996.22
2017-11-13T08:11:02.351Z,996.19
2017-11-13T08:12:11.007Z,996.20
2017-11-13T08:13:19.660Z,996.17
2017-11-13T08:14:28.328Z,996.32
2017-11-13T08:15:36.949Z,996.23
2017-11-13T08:17:54.313Z,996.13
2017-11-13T08:19:03.101Z,996.11
2017-11-13T08:20:11.563Z,996.04
2017-11-13T08:21:20.237Z,995.87
2017-11-13T08:22:28.876Z,996.08
2017-11-13T08:23:37.526Z,995.88
2017-11-13T08:24:46.290Z,996.13
2017-11-13T08:25:54.878Z,996.13
2017-11-13T08:27:04.512Z,996.19
2017-11-13T08:28:12.194Z,996.41
2017-11-13T08:29:20.880Z,996.38
2017-11-13T08:30:30.539Z,996.46
2017-11-13T08:31:38.252Z,996.43
2017-11-13T08:32:46.941Z,996.34
2017-11-13T08:33:55.520Z,996.35
2017-11-13T08:35:04.277Z,996.23
2017-11-13T08:36:12.880Z,996.31
2017-11-13T08:37:21.687Z,996.32
2017-11-13T08:38:30.292Z,996.46
2017-11-13T08:39:38.884Z,996.47
2017-11-13T08:40:47.531Z,996.36
2017-11-13T08:41:56.199Z,996.54
2017-11-13T08:43:04.933Z,996.46
2017-11-13T08:44:13.658Z,996.50
2017-11-13T08:45:22.217Z,996.67
2017-11-13T08:46:30.963Z,996.64
2017-11-13T08:47:39.776Z,996.57
2017-11-13T08:48:48.241Z,996.55
2017-11-13T08:49:57.045Z,996.73
2017-11-13T08:51:05.582Z,996.75
2017-11-13T08:52:14.313Z,996.66
2017-11-13T08:53:22.923Z,996.68
2017-11-13T08:54:31.619Z,996.74
2017-11-13T08:55:40.346Z,996.84
2017-11-13T08:56:48.958Z,996.67
2017-11-13T08:57:57.740Z,996.60
2017-11-13T08:59:06.277Z,996.63
2017-11-13T09:00:15.000Z,996.54
2017-11-13T09:01:23.772Z,996.78
2017-11-13T09:02:32.380Z,996.70
2017-11-13T09:03:40.959Z,996.63
2017-11-13T09:04:49.727Z,996.81
2017-11-13T09:05:58.413Z,996.81
2017-11-13T09:07:07.123Z,996.74
2017-11-13T09:08:15.668Z,996.73
2017-11-13T09:09:24.372Z,996.89
2017-11-13T09:10:34.030Z,996.78
2017-11-13T09:11:41.691Z,996.69
2017-11-13T09:12:50.359Z,996.68
2017-11-13T09:13:59.110Z,996.77
2017-11-13T09:15:07.752Z,996.96
2017-11-13T09:16:16.396Z,997.03
2017-11-13T09:17:25.117Z,996.86
2017-11-13T09:18:33.761Z,997.09
2017-11-13T09:19:42.462Z,997.07
2017-11-13T09:20:51.190Z,997.15
2017-11-13T09:21:59.810Z,997.35
2017-11-13T09:23:08.594Z,997.08
2017-11-13T09:24:17.174Z,997.02
2017-11-13T09:25:25.882Z,997.18
2017-11-13T09:26:34.624Z,997.21
2017-11-13T09:27:43.242Z,997.20
2017-11-13T09:28:52.022Z,997.38
2017-11-13T09:30:00.607Z,997.41
2017-11-13T09:31:09.312Z,997.37
2017-11-13T09:32:18.079Z,997.20
2017-11-13T09:33:26.690Z,997.23
2017-11-13T09:34:35.366Z,997.35
2017-11-13T09:35:44.060Z,997.27
2017-11-13T09:36:52.740Z,997.28
2017-11-13T09:38:01.418Z,997.23
2017-11-13T09:39:10.141Z,997.29
2017-11-13T09:40:18.794Z,997.23
2017-11-13T09:41:27.512Z,997.38
2017-11-13T09:42:36.277Z,997.47
2017-11-13T09:43:44.886Z,997.45
2017-11-13T09:44:53.596Z,997.30
2017-11-13T09:46:02.338Z,997.29
2017-11-13T09:47:10.996Z,997.09
2017-11-13T09:48:19.732Z,997.13
2017-11-13T09:50:37.151Z,997.45
2017-11-13T09:51:45.886Z,997.57
2017-11-13T09:52:54.598Z,997.65
2017-11-13T09:54:03.302Z,997.76
2017-11-13T09:55:12.174Z,997.32
2017-11-13T09:56:20.771Z,997.32
2017-11-13T09:57:29.520Z,997.29
2017-11-13T09:58:38.233Z,997.25
2017-11-13T09:59:47.020Z,997.42
2017-11-13T10:00:55.657Z,997.56
2017-11-13T10:02:04.488Z,997.56
2017-11-13T10:03:13.180Z,997.49
2017-11-13T10:04:21.863Z,997.55
2017-11-13T10:05:30.582Z,997.57
2017-11-13T10:06:39.434Z,997.57
2017-11-13T10:07:48.128Z,997.50
2017-11-13T10:08:56.789Z,997.57
2017-11-13T10:10:05.531Z,997.53
2017-11-13T10:11:14.468Z,997.54
2017-11-13T10:12:23.094Z,997.68
2017-11-13T10:13:31.792Z,997.69
2017-11-13T10:14:40.602Z,997.84
2017-11-13T10:15:49.316Z,997.87
2017-11-13T10:16:58.045Z,997.93
2017-11-13T10:18:07.347Z,997.93
2017-11-13T10:19:15.497Z,997.87
2017-11-13T10:20:24.231Z,997.83
2017-11-13T10:21:33.088Z,997.99
2017-11-13T10:22:41.977Z,997.90
2017-11-13T10:23:50.496Z,997.87
2017-11-13T10:24:59.211Z,997.88
2017-11-13T10:26:08.018Z,997.88
2017-11-13T10:27:16.914Z,997.89
2017-11-13T10:28:25.443Z,997.70
2017-11-13T10:29:34.157Z,997.70
2017-11-13T10:30:42.871Z,997.78
2017-11-13T10:31:51.677Z,998.03
2017-11-13T10:33:00.381Z,998.12
2017-11-13T10:34:09.101Z,998.03
2017-11-13T10:35:17.826Z,997.89
2017-11-13T10:36:26.539Z,997.93
2017-11-13T10:37:35.365Z,997.88
2017-11-13T10:38:44.559Z,997.68
2017-11-13T10:39:52.720Z,997.56
2017-11-13T10:41:01.486Z,997.34
2017-11-13T10:42:10.281Z,997.35
2017-11-13T10:43:18.951Z,997.41
2017-11-13T10:44:27.913Z,997.61
2017-11-13T10:45:36.448Z,997.65
2017-11-13T10:46:45.235Z,997.48
2017-11-13T10:47:54.229Z,997.55
2017-11-13T10:49:02.759Z,997.80
2017-11-13T10:50:11.646Z,997.81
2017-11-13T10:51:20.358Z,997.73
2017-11-13T10:52:29.278Z,997.75
2017-11-13T10:53:37.782Z,997.74
2017-11-13T10:54:46.624Z,997.77
2017-11-13T10:55:55.331Z,997.89
2017-11-13T10:57:04.151Z,998.12
2017-11-13T10:58:12.886Z,998.19
2017-11-13T10:59:21.744Z,998.08
2017-11-13T11:00:30.662Z,998.01
2017-11-13T11:01:39.195Z,998.05
2017-11-13T11:02:47.907Z,997.88
2017-11-13T11:03:56.648Z,997.90
2017-11-13T11:05:05.391Z,998.16
2017-11-13T11:06:14.142Z,997.81
2017-11-13T11:07:22.953Z,997.90
2017-11-13T11:08:31.704Z,997.95
2017-11-13T11:09:40.380Z,997.96
2017-11-13T11:10:49.134Z,997.96
2017-11-13T11:11:57.982Z,997.81
2017-11-13T11:13:06.901Z,997.96
2017-11-13T11:14:15.425Z,997.69
2017-11-13T11:15:24.147Z,997.94
2017-11-13T11:16:32.952Z,997.97
2017-11-13T11:17:41.670Z,998.01
2017-11-13T11:18:50.494Z,997.90
2017-11-13T11:19:59.191Z,998.06
2017-11-13T11:21:07.917Z,997.95
2017-11-13T11:22:16.717Z,998.01
2017-11-13T11:23:25.712Z,997.96
2017-11-13T11:24:34.189Z,997.90
2017-11-13T11:25:42.967Z,997.88
2017-11-13T11:26:51.769Z,997.57
2017-11-13T11:28:00.539Z,997.97
2017-11-13T11:29:09.421Z,998.00
2017-11-13T11:30:18.134Z,998.41
2017-11-13T11:31:27.017Z,998.28
2017-11-13T11:32:35.732Z,998.23
2017-11-13T11:33:44.589Z,998.21
2017-11-13T11:34:53.357Z,998.07
2017-11-13T11:36:02.174Z,998.04
2017-11-13T11:37:11.906Z,997.91
2017-11-13T11:38:19.730Z,998.02
2017-11-13T11:39:28.570Z,997.98
2017-11-13T11:40:37.423Z,997.94
2017-11-13T11:41:46.239Z,998.18
2017-11-13T11:42:55.126Z,998.24
2017-11-13T11:44:03.875Z,998.08
2017-11-13T11:45:12.691Z,998.07
2017-11-13T11:46:21.561Z,997.91
2017-11-13T11:47:30.420Z,997.91
2017-11-13T11:48:39.348Z,998.04
2017-11-13T11:49:48.205Z,997.85
2017-11-13T11:50:57.109Z,997.76
2017-11-13T11:52:06.083Z,997.97
2017-11-13T11:53:14.980Z,998.01
2017-11-13T11:54:23.952Z,998.09
2017-11-13T11:55:32.926Z,998.07
2017-11-13T11:56:41.941Z,998.28
2017-11-13T11:57:50.830Z,998.23
2017-11-13T11:58:59.892Z,998.28
2017-11-13T12:00:08.869Z,998.18
2017-11-13T12:01:17.783Z,998.12
2017-11-13T12:02:26.829Z,998.11
2017-11-13T12:03:35.745Z,998.31
2017-11-13T12:04:44.780Z,998.54
2017-11-13T12:05:53.782Z,998.15
2017-11-13T12:07:02.700Z,998.00
2017-11-13T12:08:11.637Z,997.83
2017-11-13T12:09:20.733Z,997.83
2017-11-13T12:10:29.625Z,998.38
2017-11-13T12:11:38.670Z,998.22
2017-11-13T12:12:47.699Z,998.29
2017-11-13T12:13:56.707Z,998.55
2017-11-13T12:15:05.655Z,998.50
2017-11-13T12:16:14.608Z,998.41
2017-11-13T12:17:23.590Z,998.13
2017-11-13T12:18:32.587Z,998.11
2017-11-13T12:19:41.568Z,997.90
2017-11-13T12:20:50.693Z,998.07
2017-11-13T12:21:59.535Z,998.04
2017-11-13T12:23:08.548Z,998.12
2017-11-13T12:24:17.418Z,998.09
2017-11-13T12:25:26.416Z,998.26
2017-11-13T12:26:35.369Z,998.08
2017-11-13T12:27:44.508Z,998.13
2017-11-13T12:28:53.332Z,998.47
2017-11-13T12:30:02.270Z,998.76
2017-11-13T12:31:12.193Z,998.71
2017-11-13T12:32:20.184Z,998.51
2017-11-13T12:33:29.104Z,998.50
2017-11-13T12:34:38.026Z,998.63
2017-11-13T12:35:47.113Z,998.58
2017-11-13T12:36:55.847Z,998.62
2017-11-13T12:38:04.767Z,998.46
2017-11-13T12:39:13.641Z,998.35
2017-11-13T12:40:22.778Z,998.15
2017-11-13T12:41:31.486Z,998.23
2017-11-13T12:42:40.434Z,998.34
2017-11-13T12:43:49.444Z,998.20
2017-11-13T12:44:58.312Z,998.26
2017-11-13T12:46:07.300Z,998.32
2017-11-13T12:47:16.238Z,998.29
2017-11-13T12:48:25.312Z,998.32
2017-11-13T12:49:34.215Z,998.45
2017-11-13T12:50:43.313Z,998.40
2017-11-13T12:51:52.222Z,998.38
2017-11-13T12:53:01.310Z,998.33
2017-11-13T12:54:10.305Z,998.56
2017-11-13T12:55:19.292Z,998.63
2017-11-13T12:56:28.955Z,998.57
2017-11-13T12:57:37.425Z,998.65
2017-11-13T12:58:46.377Z,998.53
2017-11-13T12:59:55.397Z,998.54
2017-11-13T13:01:04.334Z,998.54
2017-11-13T13:02:13.384Z,998.63
2017-11-13T13:03:22.349Z,998.70
2017-11-13T13:04:31.372Z,998.68
2017-11-13T13:05:40.390Z,998.64
2017-11-13T13:06:49.443Z,998.60
2017-11-13T13:07:58.452Z,998.59
2017-11-13T13:09:07.495Z,998.61
2017-11-13T13:10:16.562Z,998.48
2017-11-13T13:11:25.765Z,998.47
2017-11-13T13:12:34.699Z,998.44
2017-11-13T13:13:43.663Z,998.52
2017-11-13T13:14:52.741Z,998.62
2017-11-13T13:16:01.766Z,998.49
2017-11-13T13:17:10.894Z,998.32
2017-11-13T13:18:19.907Z,998.40
2017-11-13T13:19:28.935Z,998.47
2017-11-13T13:20:38.005Z,998.41
2017-11-13T13:21:47.100Z,998.73
2017-11-13T13:22:56.176Z,998.51
2017-11-13T13:24:05.297Z,998.54
2017-11-13T13:25:15.342Z,998.64
2017-11-13T13:26:23.433Z,998.69
2017-11-13T13:27:32.554Z,998.62
2017-11-13T13:28:41.595Z,999.06
2017-11-13T13:29:50.697Z,999.17
2017-11-13T13:30:59.816Z,999.16
2017-11-13T13:32:08.784Z,998.94
2017-11-13T13:33:17.852Z,999.23
2017-11-13T13:34:26.870Z,999.23
2017-11-13T13:35:35.966Z,999.13
2017-11-13T13:36:44.884Z,999.05
2017-11-13T13:37:54.776Z,998.99
2017-11-13T13:39:02.744Z,999.06
2017-11-13T13:40:11.763Z,999.06
2017-11-13T13:41:20.681Z,998.93
2017-11-13T13:42:29.713Z,998.89
2017-11-13T13:43:38.618Z,998.94
2017-11-13T13:44:47.591Z,998.78
2017-11-13T13:45:56.649Z,999.12
2017-11-13T13:47:05.548Z,999.15
2017-11-13T13:48:14.600Z,999.16
2017-11-13T13:50:33.033Z,999.19
2017-11-13T13:51:41.431Z,999.17
2017-11-13T13:52:50.633Z,999.28
2017-11-13T13:53:59.439Z,999.19
2017-11-13T13:55:08.895Z,999.25
2017-11-13T13:56:17.301Z,999.10
2017-11-13T13:57:26.201Z,999.09
2017-11-13T13:58:35.134Z,999.28
2017-11-13T13:59:44.078Z,999.30
2017-11-13T14:00:53.067Z,999.26
2017-11-13T14:02:01.981Z,999.24
2017-11-13T14:03:10.869Z,999.29
2017-11-13T14:04:19.799Z,999.31
2017-11-13T14:05:28.732Z,999.40
2017-11-13T14:06:37.826Z,999.41
2017-11-13T14:07:46.652Z,999.40
2017-11-13T14:08:55.701Z,999.48
2017-11-13T14:10:04.680Z,999.44
2017-11-13T14:11:13.515Z,999.55
2017-11-13T14:12:22.442Z,999.47
2017-11-13T14:13:31.338Z,999.51
2017-11-13T14:14:40.263Z,999.46
2017-11-13T14:15:49.280Z,999.66
2017-11-13T14:16:58.113Z,999.50
2017-11-13T14:18:07.297Z,999.73
2017-11-13T14:19:16.548Z,999.69
2017-11-13T14:20:24.954Z,999.73